Time;durP1;ratioP1;P1;durP2;ratioP2;P2;SDS_P1;SDS_P2;PMS_P1;PMS_P2;Temp;Humidity;BMP_temperature;BMP_pressure;BME280_temperature;BME280_humidity;BME280_pressure;Samples;Min_cycle;Max_cycle;Signal;HPM_P1;HPM_P2
2023/11/11 00:01:37;;;;;;;11.45;9.35;;;6.50;99.90;;;;;;4890228;28;20417;-84
2023/11/11 00:04:03;;;;;;;13.32;10.57;;;6.50;99.90;;;;;;4891425;29;20782;-87
2023/11/11 00:06:29;;;;;;;14.80;10.73;;;6.50;99.90;;;;;;4909148;29;20111;-88
2023/11/11 00:08:56;;;;;;;12.55;10.07;;;6.50;99.90;;;;;;4892036;28;20401;-87
2023/11/11 00:11:23;;;;;;;12.73;10.77;;;6.50;99.90;;;;;;4929479;28;20029;-86
2023/11/11 00:13:51;;;;;;;12.48;10.07;;;6.50;99.90;;;;;;4894463;28;20123;-86
2023/11/11 00:16:18;;;;;;;13.98;10.82;;;6.50;99.90;;;;;;4946294;28;20030;-90
2023/11/11 00:18:45;;;;;;;14.68;10.13;;;6.50;99.90;;;;;;4891640;28;20071;-90
2023/11/11 00:21:11;;;;;;;12.70;10.02;;;6.40;99.90;;;;;;4906293;29;20028;-92
2023/11/11 00:23:37;;;;;;;13.80;10.05;;;6.40;99.90;;;;;;4925613;28;20319;-91
2023/11/11 00:26:04;;;;;;;14.05;10.80;;;6.30;99.90;;;;;;4888959;28;20027;-87
2023/11/11 00:28:30;;;;;;;12.15;9.93;;;6.40;99.90;;;;;;4906904;28;20049;-90
2023/11/11 00:30:55;;;;;;;13.07;10.90;;;6.30;99.90;;;;;;4905702;28;20033;-87
2023/11/11 00:33:22;;;;;;;14.38;12.35;;;6.30;99.90;;;;;;4906463;28;20449;-90
2023/11/11 00:35:47;;;;;;;15.70;12.70;;;6.30;99.90;;;;;;4889361;29;20503;-90
2023/11/11 00:38:14;;;;;;;14.70;12.35;;;6.30;99.90;;;;;;4890948;28;20028;-92
2023/11/11 00:40:40;;;;;;;17.42;13.98;;;6.20;99.90;;;;;;4890509;28;20052;-88
2023/11/11 00:43:08;;;;;;;17.08;13.50;;;6.20;99.90;;;;;;4945319;28;20053;-90
2023/11/11 00:45:34;;;;;;;14.88;12.98;;;6.20;99.90;;;;;;4892591;28;20115;-87
2023/11/11 00:48:00;;;;;;;16.60;13.02;;;6.20;99.90;;;;;;4923926;28;20477;-86
2023/11/11 00:50:27;;;;;;;19.80;14.57;;;6.20;99.90;;;;;;4890123;29;20031;-85
2023/11/11 00:52:52;;;;;;;16.38;13.43;;;6.10;99.90;;;;;;4891862;29;20036;-84
2023/11/11 00:55:18;;;;;;;16.65;13.90;;;6.10;99.90;;;;;;4957561;28;20036;-87
2023/11/11 00:57:46;;;;;;;17.58;14.30;;;6.10;99.90;;;;;;4887588;28;20028;-83
2023/11/11 01:00:12;;;;;;;17.52;14.48;;;6.10;99.90;;;;;;4903230;28;20477;-85
2023/11/11 01:02:38;;;;;;;16.85;12.77;;;6.10;99.90;;;;;;4891846;29;20406;-85
2023/11/11 01:05:04;;;;;;;16.45;13.25;;;6.10;99.90;;;;;;4906067;29;20032;-89
2023/11/11 01:07:30;;;;;;;19.05;13.70;;;6.00;99.90;;;;;;4893481;28;20127;-87
2023/11/11 01:09:56;;;;;;;19.58;15.35;;;6.00;99.90;;;;;;4933508;28;20590;-86
2023/11/11 01:12:22;;;;;;;16.50;12.90;;;6.00;99.90;;;;;;4893318;28;20448;-86
2023/11/11 01:14:49;;;;;;;14.15;11.65;;;5.90;99.90;;;;;;4938658;28;20162;-88
2023/11/11 01:17:15;;;;;;;17.40;12.65;;;6.00;99.90;;;;;;4900818;28;20039;-87
2023/11/11 01:19:41;;;;;;;15.82;12.77;;;5.90;99.90;;;;;;4890936;28;20079;-88
2023/11/11 01:22:09;;;;;;;13.68;11.95;;;5.90;99.90;;;;;;4907158;28;20024;-90
2023/11/11 01:24:36;;;;;;;14.63;11.07;;;5.80;99.90;;;;;;4891951;28;20040;-89
2023/11/11 01:27:03;;;;;;;19.13;14.10;;;5.70;99.90;;;;;;4903740;28;20396;-85
2023/11/11 01:29:30;;;;;;;15.13;11.70;;;5.80;99.90;;;;;;4891971;28;20040;-83
2023/11/11 01:31:55;;;;;;;15.35;12.15;;;5.80;99.90;;;;;;4893250;29;20032;-88
2023/11/11 01:34:22;;;;;;;15.48;12.38;;;5.80;99.90;;;;;;4891655;28;20058;-87
2023/11/11 01:36:48;;;;;;;19.85;13.02;;;5.80;99.90;;;;;;4892606;29;20106;-86
2023/11/11 01:39:13;;;;;;;14.07;12.02;;;5.80;99.90;;;;;;4908253;29;20484;-88
2023/11/11 01:41:41;;;;;;;15.35;12.10;;;5.80;99.90;;;;;;4936391;28;20474;-87
2023/11/11 01:44:06;;;;;;;14.93;10.95;;;5.70;99.90;;;;;;4890206;28;20067;-88
2023/11/11 01:46:32;;;;;;;17.02;12.25;;;5.70;99.90;;;;;;4927755;28;20026;-88
2023/11/11 01:49:00;;;;;;;17.17;12.00;;;5.70;99.90;;;;;;4889346;29;20040;-84
2023/11/11 01:51:28;;;;;;;18.35;12.80;;;5.70;99.90;;;;;;4905035;28;20397;-88
2023/11/11 01:53:55;;;;;;;17.92;11.90;;;5.80;99.90;;;;;;4907856;28;20158;-89
2023/11/11 01:56:20;;;;;;;16.48;11.88;;;5.80;99.90;;;;;;4892318;28;20068;-87
2023/11/11 01:58:46;;;;;;;19.77;12.15;;;5.80;99.90;;;;;;4938001;28;20060;-86
2023/11/11 02:01:12;;;;;;;16.92;11.73;;;5.70;99.90;;;;;;4891395;29;20037;-87
2023/11/11 02:03:38;;;;;;;16.20;11.77;;;5.80;99.90;;;;;;4928879;28;20040;-88
2023/11/11 02:06:07;;;;;;;14.68;10.23;;;5.80;99.90;;;;;;4890693;29;20035;-85
2023/11/11 02:08:33;;;;;;;13.80;9.38;;;5.80;99.90;;;;;;4891368;29;20135;-88
2023/11/11 02:11:04;;;;;;;10.60;8.95;;;5.90;99.90;;;;;;4934706;28;20488;-89
2023/11/11 02:13:37;;;;;;;12.95;9.10;;;5.80;99.90;;;;;;4892248;28;20037;-91
2023/11/11 02:16:05;;;;;;;13.30;7.47;;;5.80;99.90;;;;;;4918763;28;20103;-91
2023/11/11 02:18:31;;;;;;;12.27;8.18;;;5.80;99.90;;;;;;4900176;28;20029;-89
2023/11/11 02:20:57;;;;;;;11.38;7.35;;;5.90;99.90;;;;;;4890344;28;20503;-87
2023/11/11 02:23:36;;;;;;;9.48;6.30;;;5.90;99.90;;;;;;4889209;28;20056;-89
2023/11/11 02:26:03;;;;;;;8.98;5.22;;;6.00;99.90;;;;;;4917700;28;20035;-89
2023/11/11 02:28:30;;;;;;;8.43;5.40;;;6.00;99.90;;;;;;4904715;29;20050;-87
2023/11/11 02:30:56;;;;;;;8.77;4.85;;;6.00;99.90;;;;;;4903328;29;20527;-87
2023/11/11 02:33:24;;;;;;;8.38;5.35;;;6.00;99.90;;;;;;4925402;28;20028;-90
2023/11/11 02:35:50;;;;;;;7.07;4.85;;;6.00;99.90;;;;;;4904251;28;20108;-88
2023/11/11 02:38:16;;;;;;;9.23;5.05;;;6.00;99.90;;;;;;4893653;28;20081;-87
2023/11/11 02:40:42;;;;;;;8.45;4.47;;;6.10;99.90;;;;;;4905820;29;20563;-88
2023/11/11 02:43:08;;;;;;;6.32;3.83;;;6.10;99.90;;;;;;4893140;28;20034;-89
2023/11/11 02:45:34;;;;;;;8.52;4.20;;;6.10;99.90;;;;;;4890828;28;20465;-85
2023/11/11 02:48:03;;;;;;;5.97;3.80;;;6.20;99.90;;;;;;4889365;28;20135;-88
2023/11/11 02:50:29;;;;;;;6.82;2.85;;;6.20;99.90;;;;;;4892737;28;20376;-84
2023/11/11 02:52:55;;;;;;;6.72;2.72;;;6.10;99.90;;;;;;4907757;29;20036;-86
2023/11/11 02:55:20;;;;;;;5.20;2.33;;;6.10;99.90;;;;;;4939322;28;20108;-88
2023/11/11 02:57:47;;;;;;;5.15;2.58;;;6.10;99.90;;;;;;4925779;28;20111;-89
2023/11/11 03:00:13;;;;;;;5.75;2.50;;;6.10;99.90;;;;;;4886934;28;20036;-86
2023/11/11 03:02:40;;;;;;;7.22;2.58;;;6.10;99.90;;;;;;4887608;28;20040;-86
2023/11/11 03:05:07;;;;;;;9.90;2.20;;;6.00;99.90;;;;;;4929786;28;20029;-87
2023/11/11 03:07:34;;;;;;;10.75;2.42;;;6.10;99.90;;;;;;4912533;28;20040;-84
2023/11/11 03:10:04;;;;;;;6.80;1.92;;;6.10;99.90;;;;;;4930240;28;20112;-89
2023/11/11 03:12:33;;;;;;;6.35;2.05;;;6.00;99.90;;;;;;4891646;28;20055;-84
2023/11/11 03:15:02;;;;;;;4.47;1.25;;;6.00;99.90;;;;;;4886020;29;20041;-85
2023/11/11 03:17:31;;;;;;;3.85;1.20;;;6.00;99.90;;;;;;4913098;28;20101;-83
2023/11/11 03:19:58;;;;;;;4.73;1.00;;;6.10;99.90;;;;;;4899193;28;20431;-86
2023/11/11 03:22:24;;;;;;;4.35;1.08;;;6.00;99.90;;;;;;4887627;28;20293;-86
2023/11/11 03:24:52;;;;;;;3.70;0.93;;;6.00;99.90;;;;;;4889145;29;20081;-85
2023/11/11 03:27:18;;;;;;;5.03;1.00;;;6.00;99.90;;;;;;4919486;28;20100;-86
2023/11/11 03:29:44;;;;;;;5.70;1.10;;;6.00;99.90;;;;;;4889144;28;20039;-84
2023/11/11 03:32:10;;;;;;;5.60;1.00;;;6.10;99.90;;;;;;4887278;28;20477;-87
2023/11/11 03:34:35;;;;;;;2.72;1.08;;;6.10;99.90;;;;;;4888023;28;20078;-89
2023/11/11 03:37:02;;;;;;;5.65;1.08;;;6.20;99.90;;;;;;4885990;28;20175;-86
2023/11/11 03:39:29;;;;;;;4.22;1.10;;;6.10;99.90;;;;;;4923512;28;20036;-84
2023/11/11 03:41:55;;;;;;;4.07;0.80;;;6.20;99.90;;;;;;4922780;28;20139;-85
2023/11/11 03:44:21;;;;;;;2.38;0.52;;;6.20;99.90;;;;;;4890642;29;20144;-90
2023/11/11 03:46:47;;;;;;;2.55;0.50;;;6.30;99.90;;;;;;4897625;28;20044;-87
2023/11/11 03:49:14;;;;;;;2.90;0.40;;;6.30;99.90;;;;;;4902116;28;20029;-88
2023/11/11 03:51:39;;;;;;;1.95;0.30;;;6.30;99.90;;;;;;4907426;28;20033;-89
2023/11/11 03:54:06;;;;;;;1.27;0.20;;;6.30;99.90;;;;;;4912516;28;20024;-87
2023/11/11 03:56:31;;;;;;;2.22;0.20;;;6.30;99.90;;;;;;4926656;28;20418;-86
2023/11/11 03:58:57;;;;;;;0.90;0.20;;;6.20;99.90;;;;;;4903762;28;20027;-86
2023/11/11 04:01:23;;;;;;;1.33;0.10;;;6.20;99.90;;;;;;4885004;28;20397;-85
2023/11/11 04:03:48;;;;;;;2.20;0.10;;;6.20;99.90;;;;;;4923386;28;20392;-87
2023/11/11 04:06:14;;;;;;;2.05;0.30;;;6.20;99.90;;;;;;4922122;28;20032;-81
2023/11/11 04:08:41;;;;;;;1.00;0.13;;;6.10;99.90;;;;;;4914425;28;20047;-86
2023/11/11 04:11:07;;;;;;;1.23;0.10;;;6.20;99.90;;;;;;4903256;29;20025;-83
2023/11/11 04:13:34;;;;;;;0.90;0.10;;;6.30;99.90;;;;;;4930490;28;20029;-83
2023/11/11 04:16:02;;;;;;;1.90;0.00;;;6.30;99.90;;;;;;4918828;28;20443;-87
2023/11/11 04:18:29;;;;;;;0.68;0.10;;;6.30;99.90;;;;;;4922255;28;20476;-85
2023/11/11 04:20:55;;;;;;;1.63;0.20;;;6.30;99.90;;;;;;4886946;28;20063;-85
2023/11/11 04:23:22;;;;;;;2.92;0.20;;;6.20;99.90;;;;;;4890993;28;20052;-86
2023/11/11 04:25:50;;;;;;;1.80;0.10;;;6.20;99.90;;;;;;4918598;28;20051;-84
2023/11/11 04:28:15;;;;;;;1.40;0.20;;;6.20;99.90;;;;;;4914145;28;20377;-88
2023/11/11 04:30:41;;;;;;;3.53;0.30;;;6.20;99.90;;;;;;4911662;28;20079;-84
2023/11/11 04:33:07;;;;;;;3.70;0.30;;;6.30;99.90;;;;;;4902499;28;20043;-85
2023/11/11 04:35:33;;;;;;;1.73;0.40;;;6.30;99.90;;;;;;4937445;28;20113;-89
2023/11/11 04:37:59;;;;;;;3.20;0.30;;;6.30;99.90;;;;;;4917737;28;20047;-83
2023/11/11 04:40:25;;;;;;;3.30;0.30;;;6.20;99.90;;;;;;4891137;28;20036;-84
2023/11/11 04:42:53;;;;;;;3.08;0.32;;;6.20;99.90;;;;;;4888926;29;20043;-86
2023/11/11 04:45:18;;;;;;;3.53;0.30;;;6.30;99.90;;;;;;4890437;28;20032;-84
2023/11/11 04:47:44;;;;;;;1.17;0.20;;;6.20;99.90;;;;;;4906519;28;20074;-82
2023/11/11 04:50:10;;;;;;;2.20;0.30;;;6.10;99.90;;;;;;4948948;28;20024;-87
2023/11/11 04:52:38;;;;;;;3.55;0.30;;;6.10;99.90;;;;;;4894088;29;20044;-88
2023/11/11 04:55:05;;;;;;;2.88;0.30;;;6.10;99.90;;;;;;4894113;29;20385;-86
2023/11/11 04:57:30;;;;;;;1.98;0.20;;;6.10;99.90;;;;;;4946029;28;20028;-87
2023/11/11 04:59:56;;;;;;;2.38;0.25;;;6.10;99.90;;;;;;4892954;28;20024;-89
2023/11/11 05:02:22;;;;;;;2.35;0.50;;;6.20;99.90;;;;;;4902816;28;20059;-85
2023/11/11 05:04:48;;;;;;;1.27;0.20;;;6.20;99.90;;;;;;4909867;28;20389;-87
2023/11/11 05:07:13;;;;;;;3.45;0.30;;;6.20;99.90;;;;;;4892821;29;20044;-86
2023/11/11 05:09:39;;;;;;;1.77;0.30;;;6.20;99.90;;;;;;4893159;28;20036;-85
2023/11/11 05:12:06;;;;;;;2.85;0.22;;;6.30;99.90;;;;;;4903767;29;20034;-87
2023/11/11 05:14:31;;;;;;;3.28;0.40;;;6.30;99.90;;;;;;4898526;29;20083;-89
2023/11/11 05:16:58;;;;;;;2.28;0.38;;;6.30;99.90;;;;;;4893426;28;20024;-86
2023/11/11 05:19:24;;;;;;;3.78;0.40;;;6.30;99.90;;;;;;4920040;28;20091;-88
2023/11/11 05:21:50;;;;;;;3.75;0.40;;;6.40;99.90;;;;;;4939841;28;20071;-84
2023/11/11 05:24:15;;;;;;;2.95;0.30;;;6.40;99.90;;;;;;4892567;28;20060;-85
2023/11/11 05:26:42;;;;;;;2.85;0.40;;;6.40;99.90;;;;;;4889486;28;20028;-87
2023/11/11 05:29:08;;;;;;;4.28;0.30;;;6.40;99.90;;;;;;4891199;28;20119;-87
2023/11/11 05:31:34;;;;;;;1.35;0.20;;;6.40;99.90;;;;;;4894179;28;20024;-86
2023/11/11 05:34:01;;;;;;;2.47;0.20;;;6.40;99.90;;;;;;4891004;28;20070;-89
2023/11/11 05:36:27;;;;;;;2.15;0.20;;;6.40;99.90;;;;;;4892339;29;20039;-86
2023/11/11 05:38:54;;;;;;;1.95;0.10;;;6.40;99.90;;;;;;4920542;28;20047;-86
2023/11/11 05:41:20;;;;;;;1.90;0.17;;;6.40;99.90;;;;;;4895347;28;20044;-88
2023/11/11 05:43:46;;;;;;;2.15;0.40;;;6.40;99.90;;;;;;4906074;29;20044;-89
2023/11/11 05:46:12;;;;;;;1.25;0.20;;;6.40;99.90;;;;;;4893437;28;20151;-88
2023/11/11 05:48:42;;;;;;;1.23;0.10;;;6.40;99.90;;;;;;4892769;29;20048;-91
2023/11/11 05:51:08;;;;;;;0.80;0.15;;;6.30;99.90;;;;;;4891527;28;20024;-86
2023/11/11 05:53:35;;;;;;;1.85;0.17;;;6.40;99.90;;;;;;4950834;28;20034;-89
2023/11/11 05:56:01;;;;;;;1.10;0.20;;;6.40;99.90;;;;;;4893153;28;20543;-86
2023/11/11 05:58:26;;;;;;;1.58;0.20;;;6.40;99.90;;;;;;4892516;28;20032;-88
2023/11/11 06:00:52;;;;;;;2.70;0.22;;;6.30;99.90;;;;;;4892138;29;20064;-86
2023/11/11 06:03:18;;;;;;;5.90;0.55;;;6.30;99.90;;;;;;4913783;28;20124;-91
2023/11/11 06:05:47;;;;;;;2.13;0.20;;;6.30;99.90;;;;;;4908054;29;20302;-89
2023/11/11 06:08:13;;;;;;;2.63;0.25;;;6.30;99.90;;;;;;4891399;29;20083;-86
2023/11/11 06:10:40;;;;;;;4.30;0.30;;;6.30;99.90;;;;;;4892530;28;20068;-89
2023/11/11 06:13:20;;;;;;;1.48;0.30;;;6.30;99.90;;;;;;4891592;29;20040;-86
2023/11/11 06:15:46;;;;;;;1.75;0.30;;;6.30;99.90;;;;;;4903561;28;20036;-89
2023/11/11 06:18:12;;;;;;;4.35;0.30;;;6.30;99.90;;;;;;4896506;28;20028;-89
2023/11/11 06:20:38;;;;;;;3.60;0.50;;;6.30;99.90;;;;;;4889671;28;20032;-90
2023/11/11 06:23:04;;;;;;;4.00;0.35;;;6.30;99.90;;;;;;4893445;28;20392;-88
2023/11/11 06:25:31;;;;;;;5.88;0.70;;;6.30;99.90;;;;;;4894165;28;20051;-90
2023/11/11 06:27:58;;;;;;;3.58;0.95;;;6.30;99.90;;;;;;4932725;28;20031;-90
2023/11/11 06:30:25;;;;;;;2.72;0.40;;;6.40;99.90;;;;;;4946708;28;20036;-89
2023/11/11 06:32:51;;;;;;;2.28;0.32;;;6.30;99.90;;;;;;4906393;28;20092;-86
2023/11/11 06:35:18;;;;;;;2.03;0.20;;;6.30;99.90;;;;;;4892685;28;20388;-87
2023/11/11 06:37:44;;;;;;;1.00;0.20;;;6.30;99.90;;;;;;4890887;28;20131;-90
2023/11/11 06:40:10;;;;;;;2.20;0.00;;;6.30;99.90;;;;;;4891373;29;20024;-89
2023/11/11 06:42:37;;;;;;;0.55;0.10;;;6.30;99.90;;;;;;4932934;28;20055;-92
2023/11/11 06:45:05;;;;;;;0.60;0.10;;;6.30;99.90;;;;;;4891994;28;20120;-89
2023/11/11 06:47:31;;;;;;;1.73;0.00;;;6.30;99.90;;;;;;4889805;28;20098;-86
2023/11/11 06:49:57;;;;;;;0.57;0.10;;;6.40;99.90;;;;;;4891225;29;20032;-86
2023/11/11 06:52:23;;;;;;;1.50;0.15;;;6.40;99.90;;;;;;4924653;28;20536;-89
2023/11/11 06:54:48;;;;;;;0.50;0.10;;;6.30;99.90;;;;;;4910120;29;20119;-84
2023/11/11 06:57:14;;;;;;;3.05;0.10;;;6.30;99.90;;;;;;4890870;28;20318;-82
2023/11/11 06:59:40;;;;;;;0.40;0.00;;;6.30;99.90;;;;;;4904318;29;20477;-83
2023/11/11 07:02:07;;;;;;;0.85;0.00;;;6.40;99.90;;;;;;4917722;28;20055;-87
2023/11/11 07:04:33;;;;;;;0.30;0.00;;;6.40;99.90;;;;;;4937033;28;20115;-88
2023/11/11 07:06:58;;;;;;;0.50;0.10;;;6.30;99.90;;;;;;4894763;28;20036;-86
2023/11/11 07:09:24;;;;;;;0.35;0.10;;;6.30;99.90;;;;;;4920357;28;20036;-85
2023/11/11 07:11:50;;;;;;;2.05;0.10;;;6.20;99.90;;;;;;4926451;28;20036;-85
2023/11/11 07:14:16;;;;;;;3.38;0.10;;;6.20;99.90;;;;;;4905188;29;20044;-87
2023/11/11 07:16:42;;;;;;;0.85;0.10;;;6.20;99.90;;;;;;4896730;28;20047;-88
2023/11/11 07:19:08;;;;;;;0.77;0.10;;;6.10;99.90;;;;;;4897069;28;20491;-86
2023/11/11 07:21:34;;;;;;;1.17;0.10;;;6.10;99.90;;;;;;4921131;28;20492;-86
2023/11/11 07:23:59;;;;;;;1.30;0.20;;;6.00;99.90;;;;;;4905889;28;20035;-87
2023/11/11 07:26:25;;;;;;;0.65;0.10;;;6.00;99.90;;;;;;4894483;29;20494;-88
2023/11/11 07:28:51;;;;;;;2.50;0.30;;;6.00;99.90;;;;;;4907054;28;20044;-88
2023/11/11 07:31:19;;;;;;;0.60;0.20;;;5.90;99.90;;;;;;4895149;29;20042;-85
2023/11/11 07:33:45;;;;;;;2.15;0.20;;;5.90;99.90;;;;;;4906965;28;20039;-83
2023/11/11 07:36:12;;;;;;;0.63;0.20;;;5.90;99.90;;;;;;4904061;29;20042;-85
2023/11/11 07:38:39;;;;;;;1.00;0.30;;;5.90;99.90;;;;;;4894543;29;20122;-87
2023/11/11 07:41:09;;;;;;;0.63;0.20;;;5.90;99.90;;;;;;4904497;28;20075;-84
2023/11/11 07:43:42;;;;;;;0.85;0.20;;;5.90;99.90;;;;;;4905692;28;20071;-85
2023/11/11 07:46:09;;;;;;;0.65;0.20;;;6.00;99.90;;;;;;4895438;28;20043;-86
2023/11/11 07:48:35;;;;;;;0.70;0.20;;;6.00;99.90;;;;;;4894276;28;20070;-87
2023/11/11 07:51:02;;;;;;;1.27;0.20;;;5.90;99.90;;;;;;4890967;28;20062;-88
2023/11/11 07:53:28;;;;;;;0.55;0.10;;;5.90;99.90;;;;;;4899919;29;20381;-86
2023/11/11 07:55:54;;;;;;;0.70;0.25;;;5.90;99.90;;;;;;4887239;29;20425;-86
2023/11/11 07:58:20;;;;;;;0.90;0.30;;;5.80;99.90;;;;;;4887747;29;20059;-86
2023/11/11 08:00:46;;;;;;;1.42;0.40;;;5.80;99.90;;;;;;4884760;28;20445;-87
2023/11/11 08:03:11;;;;;;;1.00;0.30;;;5.90;99.90;;;;;;4894530;28;20107;-86
2023/11/11 08:05:37;;;;;;;1.83;0.40;;;5.90;99.90;;;;;;4894271;28;20033;-85
2023/11/11 08:08:03;;;;;;;1.83;0.50;;;5.90;99.90;;;;;;4894296;28;20071;-89
2023/11/11 08:10:29;;;;;;;1.00;0.30;;;5.90;99.90;;;;;;4952386;28;20057;-85
2023/11/11 08:12:55;;;;;;;0.63;0.20;;;6.00;99.90;;;;;;4892772;28;20427;-89
2023/11/11 08:15:21;;;;;;;1.48;0.40;;;6.00;99.90;;;;;;4938609;28;20028;-86
2023/11/11 08:17:49;;;;;;;1.58;0.75;;;6.10;99.90;;;;;;4891337;28;20102;-88
2023/11/11 08:20:18;;;;;;;1.60;0.32;;;6.20;99.90;;;;;;4889944;28;20028;-86
2023/11/11 08:22:45;;;;;;;1.48;0.30;;;6.30;99.90;;;;;;4889958;28;20043;-88
2023/11/11 08:25:14;;;;;;;0.90;0.30;;;6.40;99.90;;;;;;4891485;29;20063;-88
2023/11/11 08:27:44;;;;;;;1.95;0.38;;;6.40;99.90;;;;;;4889498;29;20444;-90
2023/11/11 08:30:10;;;;;;;2.28;0.30;;;6.60;99.90;;;;;;4888120;28;20025;-85
2023/11/11 08:32:39;;;;;;;2.10;0.40;;;6.70;99.90;;;;;;4890435;29;20111;-89
2023/11/11 08:35:11;;;;;;;1.10;0.40;;;6.60;99.90;;;;;;4890871;28;20083;-90
2023/11/11 08:37:37;;;;;;;2.72;0.60;;;6.80;99.90;;;;;;4941614;28;20040;-87
2023/11/11 08:40:06;;;;;;;3.88;0.45;;;6.90;99.90;;;;;;4892135;29;20036;-89
2023/11/11 08:42:35;;;;;;;3.83;0.50;;;6.90;99.90;;;;;;4906055;28;20475;-90
2023/11/11 08:45:01;;;;;;;1.55;0.45;;;6.90;99.90;;;;;;4924336;28;20111;-85
2023/11/11 08:47:27;;;;;;;3.03;0.43;;;7.00;99.90;;;;;;4923096;28;20051;-85
2023/11/11 08:49:54;;;;;;;2.17;0.50;;;7.20;99.90;;;;;;4938514;28;20078;-85
2023/11/11 08:52:22;;;;;;;2.03;0.32;;;7.30;99.90;;;;;;4925638;28;20036;-84
2023/11/11 08:54:48;;;;;;;2.67;0.70;;;7.40;99.90;;;;;;4914642;28;21066;-89
2023/11/11 08:57:13;;;;;;;2.40;1.00;;;7.30;99.90;;;;;;4903565;28;20067;-89
2023/11/11 08:59:39;;;;;;;2.90;0.70;;;7.40;99.90;;;;;;4920513;28;20380;-87
2023/11/11 09:02:05;;;;;;;3.58;0.60;;;7.30;99.90;;;;;;4919132;29;20434;-86
2023/11/11 09:04:31;;;;;;;3.65;0.57;;;7.30;99.90;;;;;;4917081;28;20036;-89
2023/11/11 09:06:57;;;;;;;2.45;0.30;;;7.20;99.90;;;;;;4923132;28;20043;-86
2023/11/11 09:09:24;;;;;;;1.65;0.45;;;7.20;99.90;;;;;;4905655;28;20104;-87
2023/11/11 09:11:49;;;;;;;1.55;0.40;;;7.10;99.90;;;;;;4932545;28;20035;-87
2023/11/11 09:14:15;;;;;;;3.50;0.32;;;7.10;99.90;;;;;;4933756;28;20028;-88
2023/11/11 09:16:41;;;;;;;1.63;0.40;;;7.20;99.90;;;;;;4919982;28;20032;-86
2023/11/11 09:19:06;;;;;;;3.22;0.30;;;7.30;99.90;;;;;;4921173;28;20044;-88
2023/11/11 09:21:33;;;;;;;1.50;0.43;;;7.50;99.90;;;;;;4920333;29;20039;-87
2023/11/11 09:23:59;;;;;;;2.15;0.40;;;7.70;99.90;;;;;;4918764;28;20062;-84
2023/11/11 09:26:25;;;;;;;3.63;0.40;;;7.70;99.90;;;;;;4919182;29;20131;-87
2023/11/11 09:28:51;;;;;;;2.00;0.40;;;7.80;99.90;;;;;;4916930;28;20035;-86
2023/11/11 09:31:17;;;;;;;1.73;0.35;;;7.90;99.90;;;;;;4921177;28;20099;-85
2023/11/11 09:33:45;;;;;;;2.53;0.30;;;7.90;99.90;;;;;;4920312;28;20519;-87
2023/11/11 09:36:11;;;;;;;1.73;0.32;;;7.70;99.90;;;;;;4907239;28;20039;-85
2023/11/11 09:38:37;;;;;;;1.50;0.25;;;7.70;99.90;;;;;;4917850;28;20032;-83
2023/11/11 09:41:03;;;;;;;2.35;0.30;;;8.00;99.90;;;;;;4924483;28;20385;-93
2023/11/11 09:43:29;;;;;;;0.90;0.20;;;8.10;99.90;;;;;;4918299;28;20158;-84
2023/11/11 09:45:55;;;;;;;2.40;0.43;;;8.10;99.90;;;;;;4915884;28;20031;-87
2023/11/11 09:48:22;;;;;;;1.58;0.40;;;8.00;99.90;;;;;;4935222;28;20373;-88
2023/11/11 09:50:49;;;;;;;1.08;0.40;;;7.80;99.90;;;;;;4922057;28;20028;-90
2023/11/11 09:53:15;;;;;;;2.50;0.50;;;8.00;99.90;;;;;;4923914;28;20028;-88
2023/11/11 09:55:41;;;;;;;2.17;0.50;;;7.90;99.90;;;;;;4921762;28;20532;-90
2023/11/11 09:58:08;;;;;;;2.42;0.50;;;7.90;99.90;;;;;;4917458;29;20036;-87
2023/11/11 10:00:34;;;;;;;2.63;0.70;;;8.00;99.90;;;;;;4922480;28;20028;-91
2023/11/11 10:03:00;;;;;;;2.10;0.50;;;8.10;99.90;;;;;;4922841;28;20043;-89
2023/11/11 10:05:26;;;;;;;3.47;0.60;;;8.30;99.90;;;;;;4919341;28;20063;-88
2023/11/11 10:07:52;;;;;;;3.22;0.70;;;8.60;99.90;;;;;;4932536;28;20518;-89
2023/11/11 10:10:18;;;;;;;3.58;0.80;;;8.70;99.90;;;;;;4921701;28;20034;-87
2023/11/11 10:12:44;;;;;;;4.55;1.25;;;8.90;99.90;;;;;;4919467;28;20518;-88
2023/11/11 10:15:10;;;;;;;4.85;1.55;;;8.70;99.90;;;;;;4917084;28;20253;-87
2023/11/11 10:17:40;;;;;;;6.63;2.67;;;8.50;99.90;;;;;;4916691;28;20034;-90
2023/11/11 10:20:15;;;;;;;7.25;2.50;;;8.40;99.90;;;;;;4923160;28;20058;-89
2023/11/11 10:22:48;;;;;;;4.38;2.33;;;8.50;99.90;;;;;;4916784;28;20036;-86
2023/11/11 10:25:18;;;;;;;6.68;2.33;;;8.50;99.90;;;;;;4932166;28;20127;-91
2023/11/11 10:27:48;;;;;;;2.92;1.20;;;8.80;99.90;;;;;;4916958;28;20063;-88
2023/11/11 10:30:24;;;;;;;8.27;3.22;;;8.80;99.90;;;;;;4930583;28;20082;-89
2023/11/11 10:32:51;;;;;;;5.93;2.72;;;8.50;99.90;;;;;;4917942;28;20032;-90
2023/11/11 10:35:18;;;;;;;5.40;3.38;;;8.60;99.90;;;;;;4915570;28;20043;-86
2023/11/11 10:37:44;;;;;;;4.93;1.98;;;8.50;99.90;;;;;;4916291;28;20036;-84
2023/11/11 10:40:11;;;;;;;3.95;2.15;;;8.90;99.90;;;;;;4919142;28;20507;-87
2023/11/11 10:42:36;;;;;;;9.13;3.05;;;8.80;99.90;;;;;;4918900;28;20705;-91
2023/11/11 10:45:03;;;;;;;7.38;2.17;;;8.60;99.90;;;;;;4917020;28;20119;-89
2023/11/11 10:47:30;;;;;;;5.28;2.22;;;8.80;99.90;;;;;;4919885;28;20070;-86
2023/11/11 10:49:57;;;;;;;5.70;2.63;;;9.00;99.90;;;;;;4922888;28;20032;-90
2023/11/11 10:52:24;;;;;;;5.45;2.40;;;8.90;99.90;;;;;;4921945;28;20039;-91
2023/11/11 10:54:52;;;;;;;7.03;2.95;;;8.70;99.90;;;;;;4924261;28;20059;-86
2023/11/11 10:57:18;;;;;;;6.38;2.92;;;8.70;99.90;;;;;;4918360;28;20031;-91
2023/11/11 10:59:44;;;;;;;5.82;2.65;;;8.70;99.90;;;;;;4917732;29;20034;-87
2023/11/11 11:02:11;;;;;;;6.35;3.42;;;8.80;99.90;;;;;;4922020;28;20028;-91
2023/11/11 11:04:44;;;;;;;5.47;2.33;;;8.80;99.90;;;;;;4916334;28;20071;-89
2023/11/11 11:07:16;;;;;;;8.20;3.15;;;9.00;99.90;;;;;;4929373;28;20118;-89
2023/11/11 11:09:56;;;;;;;8.68;3.05;;;9.10;99.90;;;;;;4920450;28;20035;-87
2023/11/11 11:12:58;;;;;;;4.63;1.88;;;9.10;99.90;;;;;;4913707;28;20086;-86
2023/11/11 11:15:26;;;;;;;5.40;2.53;;;9.00;99.90;;;;;;4919423;28;20430;-88
2023/11/11 11:17:52;;;;;;;5.35;1.73;;;9.00;99.90;;;;;;4921992;28;20542;-88
2023/11/11 11:20:24;;;;;;;6.50;1.92;;;9.00;99.90;;;;;;4916276;28;20028;-84
2023/11/11 11:22:59;;;;;;;3.63;1.42;;;9.00;99.90;;;;;;4923147;28;20158;-88
2023/11/11 11:25:34;;;;;;;6.30;1.92;;;9.00;99.90;;;;;;4921539;28;20055;-88
2023/11/11 11:28:12;;;;;;;6.32;1.85;;;9.20;99.90;;;;;;4921211;28;20143;-86
2023/11/11 11:30:49;;;;;;;5.28;1.88;;;9.00;99.90;;;;;;4915852;28;20032;-83
2023/11/11 11:33:20;;;;;;;3.47;1.10;;;8.90;99.90;;;;;;4900738;28;20142;-89
2023/11/11 11:35:53;;;;;;;4.93;1.23;;;8.80;99.90;;;;;;4918885;28;20178;-88
2023/11/11 11:38:27;;;;;;;3.42;0.98;;;8.60;99.90;;;;;;4914308;28;20581;-86
2023/11/11 11:41:13;;;;;;;4.00;0.82;;;8.50;99.90;;;;;;4914883;28;20052;-84
2023/11/11 11:43:40;;;;;;;4.13;0.80;;;8.50;99.90;;;;;;4913724;28;20051;-85
2023/11/11 11:46:07;;;;;;;3.55;0.80;;;8.60;99.90;;;;;;4913088;28;20059;-85
2023/11/11 11:48:38;;;;;;;6.45;1.30;;;8.90;99.90;;;;;;4914070;28;20155;-83
2023/11/11 11:51:09;;;;;;;3.38;0.90;;;9.10;99.90;;;;;;4914205;28;20465;-89
2023/11/11 11:53:41;;;;;;;5.20;0.90;;;9.10;99.90;;;;;;4916152;28;20039;-89
2023/11/11 11:56:08;;;;;;;6.22;1.02;;;9.10;99.90;;;;;;4912864;28;20043;-86
2023/11/11 11:58:50;;;;;;;4.07;0.90;;;9.00;99.90;;;;;;4913425;28;20638;-84
2023/11/11 12:01:27;;;;;;;3.65;0.88;;;9.00;99.90;;;;;;4912773;28;20050;-83
2023/11/11 12:03:54;;;;;;;4.38;0.90;;;8.90;99.90;;;;;;4914043;28;20118;-88
2023/11/11 12:06:24;;;;;;;6.50;0.70;;;9.00;99.90;;;;;;4913203;28;20070;-85
2023/11/11 12:08:54;;;;;;;4.00;0.60;;;8.90;99.90;;;;;;4914375;28;20063;-84
2023/11/11 12:11:28;;;;;;;3.10;0.73;;;9.10;99.90;;;;;;4914492;28;20048;-83
2023/11/11 12:13:55;;;;;;;2.72;0.70;;;9.10;99.90;;;;;;4913456;28;20578;-85
2023/11/11 12:16:38;;;;;;;2.72;0.75;;;9.00;99.90;;;;;;4911981;28;20034;-84
2023/11/11 12:19:07;;;;;;;3.22;0.60;;;9.00;99.90;;;;;;4913595;28;20078;-82
2023/11/11 12:21:33;;;;;;;3.17;0.70;;;9.20;99.90;;;;;;4913783;28;20039;-87
2023/11/11 12:23:59;;;;;;;3.65;0.52;;;9.30;99.90;;;;;;4912911;28;20488;-83
2023/11/11 12:26:28;;;;;;;4.53;0.75;;;9.50;99.90;;;;;;4911492;28;20035;-81
2023/11/11 12:28:53;;;;;;;4.10;0.40;;;9.10;99.90;;;;;;4912269;28;20048;-85
2023/11/11 12:31:20;;;;;;;4.13;0.60;;;9.00;99.90;;;;;;4912509;28;20475;-83
2023/11/11 12:33:46;;;;;;;3.10;0.40;;;9.00;99.90;;;;;;4903192;28;20808;-87
2023/11/11 12:36:14;;;;;;;1.80;0.35;;;9.00;99.90;;;;;;4912381;28;20464;-85
2023/11/11 12:38:40;;;;;;;3.67;0.40;;;9.10;99.90;;;;;;4914715;28;20084;-86
2023/11/11 12:41:10;;;;;;;1.73;0.20;;;9.00;99.90;;;;;;4913662;28;20055;-87
2023/11/11 12:43:37;;;;;;;1.67;0.22;;;9.10;99.90;;;;;;4913899;28;20096;-86
2023/11/11 12:46:03;;;;;;;2.88;0.50;;;9.10;99.90;;;;;;4911956;28;20039;-90
2023/11/11 12:48:30;;;;;;;3.35;0.40;;;9.10;99.90;;;;;;4929247;28;20044;-89
2023/11/11 12:50:56;;;;;;;2.30;0.50;;;9.00;99.90;;;;;;4918184;28;20028;-86
2023/11/11 12:53:21;;;;;;;1.42;0.30;;;9.10;99.90;;;;;;4923754;28;20028;-83